De Tour Village, MI (49725)

3:21 PM EDT on August 28, 2015 (GMT -0400)
Drummond Island near St. Mary's River | | Change Station
CLOSE
Current Station
Personal Weather Station
Location: Drummond, MI
Elevation: 581 ft
Nearby Weather Stations

Elev 581 ft 46.01 °N, 83.86 °W | Updated 20 seconds ago

Clear
Clear
72.3 °F
Feels Like 75 °F
N
0.4
Wind Variable Wind from West
Gusts 2.5 mph

Today
High -- | Low -- °F
--% Chance of Precip.
Yesterday
High -- | Low -- °F
Precip. -- in
6:51 AM 8:21 PM
Waxing Gibbous, 99% visible
Pressure 30.09 in
Visibility 10.0 miles
Clouds Clear
Heat Index 75 °F
Dew Point 60 °F
Humidity 66%
Rainfall 0.00 in
Snow Depth Not available.
UV 4.0 out of 12
Pollen 10.00 out of 12
Air Quality Not available.
Flu Activity Not available.
METAR KDRM 281914Z AUTO 20007KT 10SM CLR 22/16 A3009 RMK AO2 T02170158
Pressure 30.09 in
Visibility 10.0 miles
Clouds Clear
Heat Index 75 °F
Dew Point 60 °F
Humidity 66%
Rainfall 0.00 in
Snow Depth Not available.
UV 4.0 out of 12
Pollen 10.00 out of 12
Air Quality Not available.
Flu Activity Not available.
METAR KDRM 281914Z AUTO 20007KT 10SM CLR 22/16 A3009 RMK AO2 T02170158
Nowcast | as of 3:00 PM EDT on August 28, 2015

At 4 PM...partly cloudy. Temperature 72. Southwest winds 14 mph. At 6 PM...partly cloudy. Temperature 71. Southwest winds 10 mph. At 8 PM...partly cloudy. Temperature 67. South winds 7 mph. At 10 PM...partly cloudy. Chance of showers. Temperature 65. South winds 6 mph.

×

10-Day Weather Forecast

×

Almanac

Astronomy

Aug. 28, 2015 Rise Set
Actual Time
Civil Twilight
Nautical Twilight
Astronomical Twilight
Moon
Length of Visible Light
Length of Day
Tomorrow will be .
, % of the Moon is Illuminated

Today's Extremes

State Highs State Lows

Community

WunderPhotos

Upload Photos

1,850,462 photos uploaded!

WunderBlogs® & News

Nearby

Air Quality

  Air Quality AQ Index Pollutant
Not available.

Snow Depth

Station Depth Elevation

Earthquake Activity

City Distance Mag. Time & Date
Minimum magnitude displayed is 2.5.

Coastal Water Temperatures

Place Temperature

Stations

Nearby Weather Stations

Station Location Temp. Windchill Dew Point Humidity Wind Precip. Elev Updated Type